createdAt,value
2022-10-08T00:00:58.692Z,5.07
2022-10-08T00:03:27.354Z,4.87
2022-10-08T00:06:02.264Z,4.60
2022-10-08T00:08:30.026Z,4.67
2022-10-08T00:10:58.861Z,5.30
2022-10-08T00:13:27.084Z,4.33
2022-10-08T00:15:54.590Z,5.37
2022-10-08T00:18:22.185Z,4.60
2022-10-08T00:20:49.453Z,5.53
2022-10-08T00:23:17.018Z,4.50
2022-10-08T00:25:44.864Z,5.70
2022-10-08T00:28:13.905Z,5.13
2022-10-08T00:30:41.767Z,5.03
2022-10-08T00:33:09.574Z,4.40
2022-10-08T00:35:38.151Z,4.20
2022-10-08T00:38:06.145Z,4.87
2022-10-08T00:40:33.317Z,4.80
2022-10-08T00:43:00.978Z,4.93
2022-10-08T00:45:28.143Z,5.07
2022-10-08T00:47:57.869Z,4.53
2022-10-08T00:50:33.548Z,4.67
2022-10-08T00:53:08.349Z,4.97
2022-10-08T00:55:39.971Z,4.50
2022-10-08T00:58:28.485Z,4.47
2022-10-08T01:00:56.165Z,4.63
2022-10-08T01:03:24.344Z,5.13
2022-10-08T01:06:00.795Z,5.10
2022-10-08T01:08:38.128Z,4.50
2022-10-08T01:11:05.497Z,4.97
2022-10-08T01:13:58.828Z,3.97
2022-10-08T01:16:38.806Z,4.87
2022-10-08T01:19:24.806Z,4.07
2022-10-08T01:22:10.922Z,5.13
2022-10-08T01:25:05.116Z,4.60
2022-10-08T01:27:34.316Z,5.70
2022-10-08T01:30:04.432Z,4.23
2022-10-08T01:32:37.342Z,4.63
2022-10-08T01:35:07.129Z,4.80
2022-10-08T01:37:37.327Z,4.80
2022-10-08T01:40:07.435Z,5.33
2022-10-08T01:42:36.236Z,4.73
2022-10-08T01:45:06.888Z,5.23
2022-10-08T01:47:39.784Z,5.00
2022-10-08T01:50:22.511Z,4.70
2022-10-08T01:52:53.358Z,4.87
2022-10-08T01:55:32.533Z,4.40
2022-10-08T01:58:02.652Z,4.90
2022-10-08T02:00:30.285Z,4.30
2022-10-08T02:02:57.465Z,4.70
2022-10-08T02:05:25.191Z,4.77
2022-10-08T02:07:53.148Z,4.90
2022-10-08T02:10:23.497Z,4.10
2022-10-08T02:12:50.901Z,4.57
2022-10-08T02:15:47.856Z,4.90
2022-10-08T02:18:18.780Z,4.73
2022-10-08T02:20:53.914Z,4.80
2022-10-08T02:23:27.169Z,4.20
2022-10-08T02:25:59.625Z,4.53
2022-10-08T02:28:43.373Z,3.73
2022-10-08T02:31:15.785Z,3.93
2022-10-08T02:33:51.828Z,4.43
2022-10-08T02:36:22.765Z,4.37
2022-10-08T02:38:51.991Z,4.40
2022-10-08T02:41:21.019Z,4.37
2022-10-08T02:43:49.914Z,4.77
2022-10-08T02:46:19.913Z,4.00
2022-10-08T02:48:49.349Z,4.00
2022-10-08T02:51:18.803Z,3.77
2022-10-08T02:53:48.517Z,4.30
2022-10-08T02:56:18.507Z,3.43
2022-10-08T02:58:46.265Z,4.60
2022-10-08T03:01:19.687Z,4.20
2022-10-08T03:03:55.328Z,3.93
2022-10-08T03:06:22.661Z,4.00
2022-10-08T03:08:50.494Z,4.57
2022-10-08T03:11:17.917Z,3.77
2022-10-08T03:13:47.054Z,4.00
2022-10-08T03:16:15.458Z,3.93
2022-10-08T03:18:43.107Z,4.20
2022-10-08T03:21:13.159Z,3.90
2022-10-08T03:23:40.602Z,3.87
2022-10-08T03:26:07.882Z,5.63
2022-10-08T03:28:35.067Z,3.57
2022-10-08T03:31:06.218Z,4.27
2022-10-08T03:33:34.475Z,4.57
2022-10-08T03:36:01.726Z,3.73
2022-10-08T03:38:28.936Z,3.57
2022-10-08T03:41:00.111Z,3.50
2022-10-08T03:43:34.258Z,4.63
2022-10-08T03:46:01.756Z,4.37
2022-10-08T03:48:29.111Z,4.30
2022-10-08T03:50:57.627Z,3.83
2022-10-08T03:53:25.283Z,3.87
2022-10-08T03:55:52.799Z,3.80
2022-10-08T03:58:20.426Z,3.90
2022-10-08T04:01:00.651Z,3.90
2022-10-08T04:03:28.074Z,4.27
2022-10-08T04:05:55.249Z,4.60
2022-10-08T04:08:22.370Z,4.20
2022-10-08T04:10:49.542Z,4.00
2022-10-08T04:13:17.264Z,4.13
2022-10-08T04:15:45.496Z,4.40
2022-10-08T04:18:13.855Z,4.00
2022-10-08T04:20:41.801Z,4.23
2022-10-08T04:23:09.309Z,4.50
2022-10-08T04:25:36.904Z,3.93
2022-10-08T04:28:05.110Z,3.87
2022-10-08T04:30:32.572Z,3.93
2022-10-08T04:32:59.808Z,5.67
2022-10-08T04:35:27.109Z,4.30
2022-10-08T04:37:54.216Z,4.33
2022-10-08T04:40:21.381Z,4.17
2022-10-08T04:42:52.120Z,5.03
2022-10-08T04:45:19.454Z,5.07
2022-10-08T04:47:46.675Z,4.63
2022-10-08T04:50:13.848Z,5.53
2022-10-08T04:52:40.946Z,5.33
2022-10-08T04:55:08.464Z,5.17
2022-10-08T04:57:35.580Z,6.33
2022-10-08T05:00:19.243Z,6.60
2022-10-08T05:02:47.061Z,7.40
2022-10-08T05:05:15.627Z,7.77
2022-10-08T05:07:42.757Z,6.60
2022-10-08T05:10:10.190Z,7.70
2022-10-08T05:12:37.328Z,8.57
2022-10-08T05:15:04.841Z,7.63
2022-10-08T05:17:31.980Z,7.07
2022-10-08T05:19:59.114Z,7.67
2022-10-08T05:22:26.364Z,7.87
2022-10-08T05:24:53.481Z,7.97
2022-10-08T05:27:20.603Z,8.50
2022-10-08T05:29:47.745Z,8.53
2022-10-08T05:32:14.901Z,8.47
2022-10-08T05:34:42.019Z,9.60
2022-10-08T05:37:09.159Z,8.50
2022-10-08T05:39:36.320Z,9.63
2022-10-08T05:42:03.463Z,9.43
2022-10-08T05:44:33.784Z,10.60
2022-10-08T05:47:03.307Z,10.27
2022-10-08T05:49:30.407Z,9.47
2022-10-08T05:51:57.783Z,11.47
2022-10-08T05:54:25.086Z,18.23
2022-10-08T05:56:52.278Z,12.83
2022-10-08T05:59:21.494Z,11.07
2022-10-08T06:01:48.907Z,13.47
2022-10-08T06:04:17.304Z,11.20
2022-10-08T06:06:44.651Z,13.23
2022-10-08T06:09:13.976Z,12.10
2022-10-08T06:11:42.476Z,28.27
2022-10-08T06:14:11.043Z,36.07
2022-10-08T06:16:38.674Z,18.90
2022-10-08T06:19:07.084Z,14.27
2022-10-08T06:21:34.772Z,11.67
2022-10-08T06:24:02.959Z,11.03
2022-10-08T06:26:35.734Z,10.53
2022-10-08T06:29:05.560Z,11.53
2022-10-08T06:31:33.443Z,12.27
2022-10-08T06:34:02.453Z,12.20
2022-10-08T06:36:29.948Z,11.03
2022-10-08T06:38:58.475Z,12.53
2022-10-08T06:41:26.282Z,11.90
2022-10-08T06:43:54.323Z,11.60
2022-10-08T06:46:21.505Z,11.70
2022-10-08T06:48:48.942Z,11.13
2022-10-08T06:51:17.414Z,11.23
2022-10-08T06:53:45.206Z,12.03
2022-10-08T06:56:18.107Z,10.30
2022-10-08T06:58:45.984Z,11.53
2022-10-08T07:01:14.271Z,11.50
2022-10-08T07:03:41.465Z,10.10
2022-10-08T07:06:09.963Z,10.43
2022-10-08T07:08:37.387Z,11.50
2022-10-08T07:11:05.472Z,10.00
2022-10-08T07:13:32.662Z,10.53
2022-10-08T07:16:07.166Z,10.60
2022-10-08T07:18:36.392Z,9.97
2022-10-08T07:21:03.611Z,10.20
2022-10-08T07:23:31.281Z,9.97
2022-10-08T07:26:02.726Z,10.17
2022-10-08T07:28:31.084Z,10.10
2022-10-08T07:30:58.339Z,9.27
2022-10-08T07:33:25.503Z,8.53
2022-10-08T07:35:52.599Z,8.93
2022-10-08T07:38:19.817Z,8.90
2022-10-08T07:40:48.563Z,8.43
2022-10-08T07:43:19.650Z,9.17
2022-10-08T07:45:47.435Z,9.13
2022-10-08T07:48:16.415Z,9.00
2022-10-08T07:50:43.673Z,7.70
2022-10-08T07:53:10.793Z,9.03
2022-10-08T07:55:37.939Z,8.13
2022-10-08T07:58:05.117Z,8.97
2022-10-08T08:00:32.234Z,9.07
2022-10-08T08:02:59.387Z,8.47
2022-10-08T08:05:26.510Z,8.17
2022-10-08T08:07:53.651Z,7.57
2022-10-08T08:10:20.816Z,7.60
2022-10-08T08:12:48.324Z,8.47
2022-10-08T08:15:15.924Z,7.87
2022-10-08T08:17:43.059Z,7.13
2022-10-08T08:20:10.477Z,7.30
2022-10-08T08:22:37.599Z,6.20
2022-10-08T08:25:04.870Z,6.10
2022-10-08T08:27:31.994Z,7.00
2022-10-08T08:29:59.115Z,6.67
2022-10-08T08:32:28.653Z,5.80
2022-10-08T08:34:55.896Z,6.20
2022-10-08T08:37:23.027Z,6.30
2022-10-08T08:39:50.313Z,6.07
2022-10-08T08:42:36.332Z,5.07
2022-10-08T08:45:06.256Z,5.40
2022-10-08T08:47:36.796Z,5.00
2022-10-08T08:50:09.210Z,4.93
2022-10-08T08:52:40.631Z,4.90
2022-10-08T08:55:14.671Z,5.00
2022-10-08T08:57:58.486Z,4.30
2022-10-08T09:00:30.244Z,4.67
2022-10-08T09:03:02.786Z,4.07
2022-10-08T09:05:32.523Z,4.33
2022-10-08T09:08:08.932Z,3.90
2022-10-08T09:10:39.941Z,4.37
2022-10-08T09:13:12.382Z,4.30
2022-10-08T09:15:39.674Z,3.10
2022-10-08T09:18:06.888Z,3.40
2022-10-08T09:20:40.019Z,3.60
2022-10-08T09:23:15.819Z,3.40
2022-10-08T09:25:43.902Z,3.57
2022-10-08T09:28:11.184Z,3.00
2022-10-08T09:30:43.145Z,3.80
2022-10-08T09:33:13.381Z,3.00
2022-10-08T09:35:46.665Z,3.10
2022-10-08T09:38:35.690Z,2.87
2022-10-08T09:41:04.823Z,2.67
2022-10-08T09:43:33.493Z,2.50
2022-10-08T09:46:04.593Z,2.90
2022-10-08T09:48:31.851Z,3.60
2022-10-08T09:51:00.507Z,2.70
2022-10-08T09:53:29.551Z,2.60
2022-10-08T09:55:58.787Z,2.53
2022-10-08T09:58:25.944Z,2.70
2022-10-08T10:00:57.366Z,2.40
2022-10-08T10:03:25.478Z,2.20
2022-10-08T10:05:53.325Z,2.70
2022-10-08T10:08:38.870Z,2.27
2022-10-08T10:11:06.126Z,2.30
2022-10-08T10:13:36.040Z,2.87
2022-10-08T10:16:15.540Z,2.50
2022-10-08T10:18:53.460Z,2.53
2022-10-08T10:21:25.201Z,1.60
2022-10-08T10:24:01.014Z,2.10
2022-10-08T10:26:36.198Z,2.67
2022-10-08T10:29:11.052Z,1.83
2022-10-08T10:31:44.898Z,1.70
2022-10-08T10:34:21.320Z,1.50
2022-10-08T10:36:54.464Z,1.70
2022-10-08T10:39:29.211Z,1.93
2022-10-08T10:42:08.472Z,1.90
2022-10-08T10:44:49.109Z,2.10
2022-10-08T10:47:16.765Z,1.53
2022-10-08T10:49:44.320Z,2.03
2022-10-08T10:52:37.753Z,2.03
2022-10-08T10:55:31.645Z,1.27
2022-10-08T10:58:17.531Z,1.60
2022-10-08T11:01:00.225Z,1.60
2022-10-08T11:03:40.560Z,1.50
2022-10-08T11:06:13.632Z,1.73
2022-10-08T11:08:45.737Z,1.10
2022-10-08T11:11:15.811Z,1.70
2022-10-08T11:13:55.205Z,1.80
2022-10-08T11:16:34.372Z,1.50
2022-10-08T11:19:02.842Z,1.13
2022-10-08T11:21:38.722Z,1.30
2022-10-08T11:24:14.707Z,1.80
2022-10-08T11:26:48.079Z,1.20
2022-10-08T11:29:33.692Z,1.17
2022-10-08T11:32:01.805Z,1.73
2022-10-08T11:34:32.542Z,1.47
2022-10-08T11:37:03.031Z,1.87
2022-10-08T11:39:36.236Z,1.73
2022-10-08T11:42:22.077Z,1.50
2022-10-08T11:44:49.203Z,1.60
2022-10-08T11:47:34.918Z,1.50
2022-10-08T11:50:04.856Z,1.60
2022-10-08T11:52:32.876Z,1.60
2022-10-08T11:55:05.224Z,1.63
2022-10-08T11:57:55.932Z,2.07
2022-10-08T12:00:28.620Z,3.23
2022-10-08T12:02:56.557Z,1.30
2022-10-08T12:05:23.844Z,1.80
2022-10-08T12:07:53.739Z,2.20
2022-10-08T12:10:20.853Z,1.53
2022-10-08T12:12:51.192Z,1.23
2022-10-08T12:15:24.646Z,1.70
2022-10-08T12:17:53.061Z,1.50
2022-10-08T12:20:21.864Z,1.80
2022-10-08T12:23:07.641Z,1.70
2022-10-08T12:25:58.056Z,3.57
2022-10-08T12:28:25.536Z,1.67
2022-10-08T12:30:52.961Z,2.30
2022-10-08T12:33:20.843Z,1.83
2022-10-08T12:35:54.124Z,1.50
2022-10-08T12:38:26.399Z,1.40
2022-10-08T12:40:56.610Z,1.33
2022-10-08T12:43:23.702Z,1.50
2022-10-08T12:45:55.499Z,1.70
2022-10-08T12:48:33.939Z,1.70
2022-10-08T12:51:22.532Z,1.80
2022-10-08T12:53:50.192Z,1.50
2022-10-08T12:56:19.460Z,1.30
2022-10-08T12:58:47.460Z,1.30
2022-10-08T13:01:17.650Z,1.97
2022-10-08T13:03:44.891Z,2.30
2022-10-08T13:06:34.075Z,1.70
2022-10-08T13:09:01.880Z,2.73
2022-10-08T13:11:29.570Z,2.60
2022-10-08T13:13:57.042Z,2.40
2022-10-08T13:16:25.648Z,1.90
2022-10-08T13:18:54.116Z,1.30
2022-10-08T13:21:35.805Z,1.60
2022-10-08T13:24:04.948Z,1.47
2022-10-08T13:26:40.721Z,1.53
2022-10-08T13:29:17.870Z,1.90
2022-10-08T13:31:51.599Z,2.03
2022-10-08T13:34:18.936Z,14.63
2022-10-08T13:36:53.057Z,2.73
2022-10-08T13:39:24.432Z,1.27
2022-10-08T13:41:52.763Z,1.47
2022-10-08T13:44:19.938Z,1.20
2022-10-08T13:46:47.463Z,7.20
2022-10-08T13:49:20.374Z,3.13
2022-10-08T13:51:48.013Z,2.53
2022-10-08T13:54:17.660Z,1.17
2022-10-08T13:56:44.875Z,1.10
2022-10-08T13:59:12.089Z,1.43
2022-10-08T14:01:39.221Z,1.83
2022-10-08T14:04:06.406Z,1.73
2022-10-08T14:06:33.894Z,1.60
2022-10-08T14:09:01.141Z,1.43
2022-10-08T14:11:28.294Z,1.70
2022-10-08T14:13:55.424Z,5.40
2022-10-08T14:16:22.637Z,2.13
2022-10-08T14:18:49.800Z,1.20
2022-10-08T14:21:17.330Z,1.10
2022-10-08T14:23:44.646Z,1.63
2022-10-08T14:26:13.082Z,1.77
2022-10-08T14:28:40.637Z,1.37
2022-10-08T14:31:08.143Z,2.03
2022-10-08T14:33:35.313Z,1.70
2022-10-08T14:36:02.598Z,1.97
2022-10-08T14:38:32.771Z,1.60
2022-10-08T14:41:00.533Z,1.80
2022-10-08T14:43:27.925Z,1.87
2022-10-08T14:45:55.298Z,1.60
2022-10-08T14:48:22.582Z,1.83
2022-10-08T14:50:49.683Z,1.60
2022-10-08T14:53:16.918Z,1.77
2022-10-08T14:56:07.528Z,1.27
2022-10-08T14:58:31.528Z,1.20
2022-10-08T15:00:58.916Z,2.33
2022-10-08T15:03:26.366Z,4.83
2022-10-08T15:05:54.291Z,1.97
2022-10-08T15:08:21.547Z,1.50
2022-10-08T15:10:48.670Z,1.33
2022-10-08T15:13:15.850Z,1.67
2022-10-08T15:15:43.583Z,1.37
2022-10-08T15:18:11.447Z,1.60
2022-10-08T15:20:39.307Z,1.20
2022-10-08T15:23:07.347Z,1.37
2022-10-08T15:25:34.772Z,1.50
2022-10-08T15:28:01.989Z,1.20
2022-10-08T15:30:29.132Z,1.53
2022-10-08T15:32:56.274Z,1.50
2022-10-08T15:35:23.439Z,2.00
2022-10-08T15:37:50.616Z,2.70
2022-10-08T15:40:17.973Z,6.00
2022-10-08T15:42:45.295Z,4.40
2022-10-08T15:45:12.658Z,3.57
2022-10-08T15:47:39.746Z,4.73
2022-10-08T15:50:07.270Z,2.00
2022-10-08T15:52:34.528Z,2.50
2022-10-08T15:55:02.647Z,2.53
2022-10-08T15:57:29.850Z,7.23
2022-10-08T15:59:58.336Z,7.87
2022-10-08T16:02:25.694Z,4.47
2022-10-08T16:04:53.410Z,2.40
2022-10-08T16:07:20.983Z,2.70
2022-10-08T16:09:48.092Z,1.93
2022-10-08T16:12:15.218Z,1.53
2022-10-08T16:14:42.398Z,1.87
2022-10-08T16:17:09.547Z,2.00
2022-10-08T16:19:36.748Z,1.80
2022-10-08T16:22:04.086Z,2.23
2022-10-08T16:24:31.314Z,2.33
2022-10-08T16:26:58.427Z,2.93
2022-10-08T16:29:25.631Z,2.80
2022-10-08T16:31:52.743Z,2.20
2022-10-08T16:34:21.393Z,2.67
2022-10-08T16:36:48.826Z,2.73
2022-10-08T16:39:20.891Z,2.00
2022-10-08T16:41:48.725Z,1.93
2022-10-08T16:44:17.097Z,2.40
2022-10-08T16:46:45.667Z,4.37
2022-10-08T16:49:17.365Z,2.33
2022-10-08T16:51:48.345Z,3.70
2022-10-08T16:54:16.536Z,1.87
2022-10-08T16:56:44.283Z,2.63
2022-10-08T16:59:15.883Z,2.77
2022-10-08T17:01:43.961Z,2.93
2022-10-08T17:04:11.575Z,4.23
2022-10-08T17:06:38.834Z,4.10
2022-10-08T17:09:06.256Z,4.30
2022-10-08T17:11:33.909Z,3.80
2022-10-08T17:14:01.586Z,3.57
2022-10-08T17:16:29.463Z,3.90
2022-10-08T17:18:57.713Z,4.80
2022-10-08T17:21:25.092Z,3.60
2022-10-08T17:23:52.224Z,3.10
2022-10-08T17:26:22.830Z,3.27
2022-10-08T17:28:50.612Z,3.10
2022-10-08T17:31:19.444Z,2.70
2022-10-08T17:33:47.030Z,3.17
2022-10-08T17:36:18.454Z,4.03
2022-10-08T17:38:47.080Z,2.60
2022-10-08T17:41:15.230Z,3.30
2022-10-08T17:43:43.182Z,3.17
2022-10-08T17:46:11.943Z,2.90
2022-10-08T17:48:39.174Z,3.40
2022-10-08T17:51:06.855Z,3.00
2022-10-08T17:53:34.067Z,4.57
2022-10-08T17:56:01.813Z,3.60
2022-10-08T17:58:29.273Z,3.50
2022-10-08T18:01:12.998Z,3.27
2022-10-08T18:03:40.995Z,4.10
2022-10-08T18:06:09.754Z,2.90
2022-10-08T18:08:37.554Z,3.40
2022-10-08T18:11:06.151Z,3.70
2022-10-08T18:13:33.911Z,3.13
2022-10-08T18:16:04.959Z,3.60
2022-10-08T18:18:32.982Z,3.23
2022-10-08T18:21:01.251Z,5.33
2022-10-08T18:23:29.162Z,5.43
2022-10-08T18:26:06.680Z,5.23
2022-10-08T18:28:33.952Z,4.70
2022-10-08T18:31:08.879Z,4.70
2022-10-08T18:33:36.913Z,4.87
2022-10-08T18:36:12.764Z,4.43
2022-10-08T18:38:40.728Z,4.07
2022-10-08T18:41:11.571Z,5.13
2022-10-08T18:43:39.110Z,3.80
2022-10-08T18:46:06.581Z,4.43
2022-10-08T18:48:37.423Z,4.40
2022-10-08T18:51:24.296Z,4.60
2022-10-08T18:53:52.445Z,5.00
2022-10-08T18:56:25.608Z,4.37
2022-10-08T18:58:54.125Z,4.10
2022-10-08T19:01:23.117Z,4.20
2022-10-08T19:03:51.725Z,4.80
2022-10-08T19:06:19.886Z,7.97
2022-10-08T19:08:49.950Z,7.90
2022-10-08T19:11:22.367Z,9.00
2022-10-08T19:13:54.363Z,7.90
2022-10-08T19:16:22.268Z,7.23
2022-10-08T19:18:56.733Z,5.97
2022-10-08T19:21:24.695Z,5.93
2022-10-08T19:23:52.196Z,5.13
2022-10-08T19:26:19.914Z,4.73
2022-10-08T19:28:49.586Z,5.27
2022-10-08T19:31:21.185Z,4.10
2022-10-08T19:33:49.849Z,4.37
2022-10-08T19:36:17.681Z,3.87
2022-10-08T19:38:45.018Z,4.03
2022-10-08T19:41:12.855Z,4.00
2022-10-08T19:43:43.286Z,4.50
2022-10-08T19:46:11.706Z,4.63
2022-10-08T19:48:38.975Z,4.50
2022-10-08T19:51:07.171Z,4.20
2022-10-08T19:53:35.915Z,4.07
2022-10-08T19:56:08.374Z,4.57
2022-10-08T19:58:35.989Z,3.73
2022-10-08T20:01:05.940Z,3.43
2022-10-08T20:03:33.080Z,3.30
2022-10-08T20:06:07.314Z,3.07
2022-10-08T20:08:35.036Z,5.03
2022-10-08T20:11:10.698Z,9.73
2022-10-08T20:13:38.243Z,14.67
2022-10-08T20:16:12.801Z,16.03
2022-10-08T20:18:40.318Z,14.83
2022-10-08T20:21:10.945Z,15.90
2022-10-08T20:23:39.192Z,13.67
2022-10-08T20:26:10.861Z,9.40
2022-10-08T20:28:39.193Z,8.77
2022-10-08T20:31:14.917Z,9.70
2022-10-08T20:33:42.761Z,10.40
2022-10-08T20:36:11.066Z,7.27
2022-10-08T20:38:38.740Z,6.83
2022-10-08T20:41:06.611Z,3.60
2022-10-08T20:43:34.848Z,3.90
2022-10-08T20:46:03.252Z,3.63
2022-10-08T20:48:32.654Z,3.00
2022-10-08T20:51:07.117Z,3.07
2022-10-08T20:53:34.708Z,3.33
2022-10-08T20:56:09.659Z,2.70
2022-10-08T20:58:37.047Z,3.40
2022-10-08T21:01:05.610Z,3.50
2022-10-08T21:03:33.513Z,3.37
2022-10-08T21:06:00.986Z,4.07
2022-10-08T21:08:28.435Z,3.63
2022-10-08T21:10:55.704Z,3.43
2022-10-08T21:13:23.142Z,3.20
2022-10-08T21:15:50.338Z,3.33
2022-10-08T21:18:17.935Z,3.67
2022-10-08T21:20:49.124Z,3.80
2022-10-08T21:23:16.398Z,4.17
2022-10-08T21:25:43.535Z,4.43
2022-10-08T21:28:10.769Z,5.10
2022-10-08T21:30:37.948Z,3.90
2022-10-08T21:33:06.675Z,4.13
2022-10-08T21:35:36.649Z,3.37
2022-10-08T21:38:03.831Z,3.83
2022-10-08T21:40:31.124Z,3.80
2022-10-08T21:42:59.157Z,4.07
2022-10-08T21:45:26.732Z,4.63
2022-10-08T21:47:54.054Z,4.53
2022-10-08T21:50:21.179Z,5.73
2022-10-08T21:52:48.690Z,5.70
2022-10-08T21:55:16.667Z,4.77
2022-10-08T21:57:44.378Z,5.27
2022-10-08T22:00:12.482Z,4.83
2022-10-08T22:02:40.038Z,4.60
2022-10-08T22:05:07.303Z,5.37
2022-10-08T22:07:34.569Z,5.57
2022-10-08T22:10:01.797Z,5.70
2022-10-08T22:12:29.005Z,6.10
2022-10-08T22:14:56.452Z,5.27
2022-10-08T22:17:23.622Z,6.10
2022-10-08T22:19:50.929Z,5.30
2022-10-08T22:22:18.122Z,6.53
2022-10-08T22:24:45.244Z,5.80
2022-10-08T22:27:12.672Z,5.33
2022-10-08T22:29:39.784Z,5.20
2022-10-08T22:32:07.191Z,5.23
2022-10-08T22:34:34.838Z,4.90
2022-10-08T22:37:02.011Z,5.33
2022-10-08T22:39:29.279Z,5.10
2022-10-08T22:41:56.467Z,5.03
2022-10-08T22:44:23.796Z,5.30
2022-10-08T22:46:50.915Z,4.93
2022-10-08T22:49:18.304Z,5.33
2022-10-08T22:51:45.586Z,4.43
2022-10-08T22:54:12.812Z,4.63
2022-10-08T22:56:40.449Z,5.20
2022-10-08T22:59:07.762Z,4.43
2022-10-08T23:01:35.040Z,4.70
2022-10-08T23:04:02.271Z,4.80
2022-10-08T23:06:32.202Z,4.53
2022-10-08T23:09:00.522Z,4.30
2022-10-08T23:11:28.651Z,4.37
2022-10-08T23:13:56.757Z,4.03
2022-10-08T23:16:25.194Z,5.30
2022-10-08T23:18:54.209Z,4.60
2022-10-08T23:21:21.425Z,5.60
2022-10-08T23:23:49.035Z,5.30
2022-10-08T23:26:16.483Z,3.97
2022-10-08T23:28:44.612Z,4.00
2022-10-08T23:31:11.727Z,4.53
2022-10-08T23:33:39.924Z,4.63
2022-10-08T23:36:08.248Z,6.00
2022-10-08T23:38:36.076Z,4.63
2022-10-08T23:41:04.483Z,4.73
2022-10-08T23:43:39.455Z,4.70
2022-10-08T23:46:07.056Z,5.37
2022-10-08T23:48:34.902Z,4.80
2022-10-08T23:51:02.416Z,4.67
2022-10-08T23:53:29.766Z,4.43
2022-10-08T23:55:57.311Z,4.67
2022-10-08T23:58:25.466Z,3.70
